sensor_id;sensor_type;location;lat;lon;timestamp;P1;durP1;ratioP1;P2;durP2;ratioP2
27293;SDS011;14785;52.556;13.430;2022-07-06T00:00:04;3.37;;;1.07;;
27293;SDS011;14785;52.556;13.430;2022-07-06T00:02:30;2.72;;;0.80;;
27293;SDS011;14785;52.556;13.430;2022-07-06T00:04:55;3.30;;;1.00;;
27293;SDS011;14785;52.556;13.430;2022-07-06T00:07:22;3.20;;;0.90;;
27293;SDS011;14785;52.556;13.430;2022-07-06T00:09:48;3.72;;;0.90;;
27293;SDS011;14785;52.556;13.430;2022-07-06T00:12:14;4.77;;;0.97;;
27293;SDS011;14785;52.556;13.430;2022-07-06T00:14:39;6.87;;;1.10;;
27293;SDS011;14785;52.556;13.430;2022-07-06T00:17:05;3.80;;;0.90;;
27293;SDS011;14785;52.556;13.430;2022-07-06T00:19:30;4.60;;;1.33;;
27293;SDS011;14785;52.556;13.430;2022-07-06T00:21:56;2.63;;;0.93;;
27293;SDS011;14785;52.556;13.430;2022-07-06T00:24:21;4.83;;;1.20;;
27293;SDS011;14785;52.556;13.430;2022-07-06T00:26:46;1.60;;;0.97;;
27293;SDS011;14785;52.556;13.430;2022-07-06T00:29:12;6.67;;;1.17;;
27293;SDS011;14785;52.556;13.430;2022-07-06T00:31:37;5.93;;;1.07;;
27293;SDS011;14785;52.556;13.430;2022-07-06T00:34:02;2.57;;;0.80;;
27293;SDS011;14785;52.556;13.430;2022-07-06T00:36:28;2.13;;;0.87;;
27293;SDS011;14785;52.556;13.430;2022-07-06T00:38:53;2.93;;;0.90;;
27293;SDS011;14785;52.556;13.430;2022-07-06T00:41:19;2.60;;;1.00;;
27293;SDS011;14785;52.556;13.430;2022-07-06T00:43:51;4.97;;;1.10;;
27293;SDS011;14785;52.556;13.430;2022-07-06T00:46:21;5.60;;;1.10;;
27293;SDS011;14785;52.556;13.430;2022-07-06T00:48:51;2.95;;;1.00;;
27293;SDS011;14785;52.556;13.430;2022-07-06T00:51:16;3.93;;;1.33;;
27293;SDS011;14785;52.556;13.430;2022-07-06T00:53:42;6.13;;;1.00;;
27293;SDS011;14785;52.556;13.430;2022-07-06T00:56:08;2.00;;;0.73;;
27293;SDS011;14785;52.556;13.430;2022-07-06T00:58:34;5.88;;;1.20;;
27293;SDS011;14785;52.556;13.430;2022-07-06T01:01:00;1.30;;;0.70;;
27293;SDS011;14785;52.556;13.430;2022-07-06T01:03:25;6.93;;;1.27;;
27293;SDS011;14785;52.556;13.430;2022-07-06T01:05:51;2.87;;;1.10;;
27293;SDS011;14785;52.556;13.430;2022-07-06T01:08:16;3.33;;;0.90;;
27293;SDS011;14785;52.556;13.430;2022-07-06T01:10:42;4.87;;;1.30;;
27293;SDS011;14785;52.556;13.430;2022-07-06T01:13:08;1.40;;;1.00;;
27293;SDS011;14785;52.556;13.430;2022-07-06T01:15:33;3.73;;;1.10;;
27293;SDS011;14785;52.556;13.430;2022-07-06T01:17:58;5.30;;;1.53;;
27293;SDS011;14785;52.556;13.430;2022-07-06T01:20:25;4.05;;;1.20;;
27293;SDS011;14785;52.556;13.430;2022-07-06T01:22:52;2.92;;;1.33;;
27293;SDS011;14785;52.556;13.430;2022-07-06T01:25:19;3.58;;;1.10;;
27293;SDS011;14785;52.556;13.430;2022-07-06T01:27:45;4.32;;;1.25;;
27293;SDS011;14785;52.556;13.430;2022-07-06T01:30:13;5.03;;;1.30;;
27293;SDS011;14785;52.556;13.430;2022-07-06T01:32:40;4.32;;;1.40;;
27293;SDS011;14785;52.556;13.430;2022-07-06T01:35:07;3.53;;;1.30;;
27293;SDS011;14785;52.556;13.430;2022-07-06T01:37:33;3.65;;;1.20;;
27293;SDS011;14785;52.556;13.430;2022-07-06T01:39:59;7.90;;;1.50;;
27293;SDS011;14785;52.556;13.430;2022-07-06T01:42:25;4.22;;;1.10;;
27293;SDS011;14785;52.556;13.430;2022-07-06T01:44:51;5.88;;;1.00;;
27293;SDS011;14785;52.556;13.430;2022-07-06T01:47:16;9.37;;;1.53;;
27293;SDS011;14785;52.556;13.430;2022-07-06T01:49:42;3.00;;;1.10;;
27293;SDS011;14785;52.556;13.430;2022-07-06T01:52:07;3.63;;;1.13;;
27293;SDS011;14785;52.556;13.430;2022-07-06T01:54:33;4.37;;;1.47;;
27293;SDS011;14785;52.556;13.430;2022-07-06T01:56:58;4.37;;;1.10;;
27293;SDS011;14785;52.556;13.430;2022-07-06T01:59:23;3.20;;;1.20;;
27293;SDS011;14785;52.556;13.430;2022-07-06T02:01:49;3.43;;;0.93;;
27293;SDS011;14785;52.556;13.430;2022-07-06T02:04:14;4.80;;;1.27;;
27293;SDS011;14785;52.556;13.430;2022-07-06T02:06:39;4.87;;;1.30;;
27293;SDS011;14785;52.556;13.430;2022-07-06T02:09:05;3.70;;;1.30;;
27293;SDS011;14785;52.556;13.430;2022-07-06T02:11:30;6.20;;;1.77;;
27293;SDS011;14785;52.556;13.430;2022-07-06T02:13:55;7.37;;;1.50;;
27293;SDS011;14785;52.556;13.430;2022-07-06T02:16:21;4.37;;;1.10;;
27293;SDS011;14785;52.556;13.430;2022-07-06T02:18:46;3.20;;;1.33;;
27293;SDS011;14785;52.556;13.430;2022-07-06T02:21:11;5.80;;;1.43;;
27293;SDS011;14785;52.556;13.430;2022-07-06T02:23:37;5.00;;;1.63;;
27293;SDS011;14785;52.556;13.430;2022-07-06T02:26:02;3.03;;;1.37;;
27293;SDS011;14785;52.556;13.430;2022-07-06T02:28:28;9.55;;;1.58;;
27293;SDS011;14785;52.556;13.430;2022-07-06T02:30:54;4.03;;;1.77;;
27293;SDS011;14785;52.556;13.430;2022-07-06T02:33:19;5.10;;;1.97;;
27293;SDS011;14785;52.556;13.430;2022-07-06T02:35:45;6.73;;;2.00;;
27293;SDS011;14785;52.556;13.430;2022-07-06T02:38:10;7.73;;;2.23;;
27293;SDS011;14785;52.556;13.430;2022-07-06T02:40:36;6.33;;;1.90;;
27293;SDS011;14785;52.556;13.430;2022-07-06T02:43:01;7.43;;;2.40;;
27293;SDS011;14785;52.556;13.430;2022-07-06T02:45:27;7.83;;;2.73;;
27293;SDS011;14785;52.556;13.430;2022-07-06T02:47:52;9.33;;;2.70;;
27293;SDS011;14785;52.556;13.430;2022-07-06T02:50:20;7.90;;;2.42;;
27293;SDS011;14785;52.556;13.430;2022-07-06T02:52:45;9.20;;;2.47;;
27293;SDS011;14785;52.556;13.430;2022-07-06T02:55:11;8.83;;;2.47;;
27293;SDS011;14785;52.556;13.430;2022-07-06T02:57:36;6.33;;;2.30;;
27293;SDS011;14785;52.556;13.430;2022-07-06T03:00:02;6.97;;;2.60;;
27293;SDS011;14785;52.556;13.430;2022-07-06T03:02:28;6.55;;;2.80;;
27293;SDS011;14785;52.556;13.430;2022-07-06T03:04:54;8.90;;;2.23;;
27293;SDS011;14785;52.556;13.430;2022-07-06T03:07:19;9.20;;;2.07;;
27293;SDS011;14785;52.556;13.430;2022-07-06T03:09:44;8.90;;;2.57;;
27293;SDS011;14785;52.556;13.430;2022-07-06T03:12:10;6.37;;;2.40;;
27293;SDS011;14785;52.556;13.430;2022-07-06T03:14:35;8.43;;;2.27;;
27293;SDS011;14785;52.556;13.430;2022-07-06T03:17:01;8.37;;;2.27;;
27293;SDS011;14785;52.556;13.430;2022-07-06T03:19:26;8.70;;;3.07;;
27293;SDS011;14785;52.556;13.430;2022-07-06T03:21:51;8.87;;;2.70;;
27293;SDS011;14785;52.556;13.430;2022-07-06T03:24:17;7.73;;;2.53;;
27293;SDS011;14785;52.556;13.430;2022-07-06T03:26:42;12.27;;;3.47;;
27293;SDS011;14785;52.556;13.430;2022-07-06T03:29:08;9.17;;;2.60;;
27293;SDS011;14785;52.556;13.430;2022-07-06T03:31:33;6.23;;;2.87;;
27293;SDS011;14785;52.556;13.430;2022-07-06T03:36:25;14.87;;;3.07;;
27293;SDS011;14785;52.556;13.430;2022-07-06T03:38:50;6.27;;;2.30;;
27293;SDS011;14785;52.556;13.430;2022-07-06T03:41:15;7.47;;;3.17;;
27293;SDS011;14785;52.556;13.430;2022-07-06T03:43:41;9.20;;;3.00;;
27293;SDS011;14785;52.556;13.430;2022-07-06T03:46:06;9.27;;;2.70;;
27293;SDS011;14785;52.556;13.430;2022-07-06T03:48:32;8.23;;;3.07;;
27293;SDS011;14785;52.556;13.430;2022-07-06T03:50:57;8.20;;;3.20;;
27293;SDS011;14785;52.556;13.430;2022-07-06T03:53:22;10.70;;;3.00;;
27293;SDS011;14785;52.556;13.430;2022-07-06T03:55:48;10.03;;;3.40;;
27293;SDS011;14785;52.556;13.430;2022-07-06T03:58:33;8.48;;;3.60;;
27293;SDS011;14785;52.556;13.430;2022-07-06T04:00:59;9.33;;;3.43;;
27293;SDS011;14785;52.556;13.430;2022-07-06T04:03:25;7.63;;;3.23;;
27293;SDS011;14785;52.556;13.430;2022-07-06T04:05:50;6.40;;;3.10;;
27293;SDS011;14785;52.556;13.430;2022-07-06T04:08:15;12.80;;;3.23;;
27293;SDS011;14785;52.556;13.430;2022-07-06T04:10:41;9.73;;;2.37;;
27293;SDS011;14785;52.556;13.430;2022-07-06T04:13:06;7.57;;;2.67;;
27293;SDS011;14785;52.556;13.430;2022-07-06T04:15:32;10.90;;;3.17;;
27293;SDS011;14785;52.556;13.430;2022-07-06T04:17:57;10.33;;;2.67;;
27293;SDS011;14785;52.556;13.430;2022-07-06T04:20:23;4.83;;;2.13;;
27293;SDS011;14785;52.556;13.430;2022-07-06T04:22:50;10.98;;;2.70;;
27293;SDS011;14785;52.556;13.430;2022-07-06T04:25:16;10.27;;;2.72;;
27293;SDS011;14785;52.556;13.430;2022-07-06T04:27:42;7.13;;;2.20;;
27293;SDS011;14785;52.556;13.430;2022-07-06T04:30:08;7.73;;;2.23;;
27293;SDS011;14785;52.556;13.430;2022-07-06T04:32:34;11.85;;;3.05;;
27293;SDS011;14785;52.556;13.430;2022-07-06T04:35:00;5.65;;;2.47;;
27293;SDS011;14785;52.556;13.430;2022-07-06T04:37:26;11.15;;;2.45;;
27293;SDS011;14785;52.556;13.430;2022-07-06T04:39:52;6.87;;;2.27;;
27293;SDS011;14785;52.556;13.430;2022-07-06T04:42:17;5.03;;;2.30;;
27293;SDS011;14785;52.556;13.430;2022-07-06T04:44:42;3.93;;;1.60;;
27293;SDS011;14785;52.556;13.430;2022-07-06T04:47:08;11.07;;;2.67;;
27293;SDS011;14785;52.556;13.430;2022-07-06T04:49:33;6.90;;;2.10;;
27293;SDS011;14785;52.556;13.430;2022-07-06T04:51:59;11.03;;;2.37;;
27293;SDS011;14785;52.556;13.430;2022-07-06T04:54:24;6.30;;;1.87;;
27293;SDS011;14785;52.556;13.430;2022-07-06T04:56:50;5.80;;;2.40;;
27293;SDS011;14785;52.556;13.430;2022-07-06T04:59:15;7.87;;;2.03;;
27293;SDS011;14785;52.556;13.430;2022-07-06T05:01:41;10.70;;;2.63;;
27293;SDS011;14785;52.556;13.430;2022-07-06T05:04:07;7.73;;;2.37;;
27293;SDS011;14785;52.556;13.430;2022-07-06T05:06:32;8.95;;;2.50;;
27293;SDS011;14785;52.556;13.430;2022-07-06T05:08:58;8.60;;;2.03;;
27293;SDS011;14785;52.556;13.430;2022-07-06T05:11:24;5.05;;;1.63;;
27293;SDS011;14785;52.556;13.430;2022-07-06T05:13:50;6.55;;;2.10;;
27293;SDS011;14785;52.556;13.430;2022-07-06T05:16:15;9.17;;;1.80;;
27293;SDS011;14785;52.556;13.430;2022-07-06T05:18:41;5.33;;;1.60;;
27293;SDS011;14785;52.556;13.430;2022-07-06T05:21:06;6.17;;;1.97;;
27293;SDS011;14785;52.556;13.430;2022-07-06T05:23:31;6.70;;;1.77;;
27293;SDS011;14785;52.556;13.430;2022-07-06T05:25:57;7.03;;;2.20;;
27293;SDS011;14785;52.556;13.430;2022-07-06T05:28:22;7.97;;;1.97;;
27293;SDS011;14785;52.556;13.430;2022-07-06T05:30:48;9.10;;;1.80;;
27293;SDS011;14785;52.556;13.430;2022-07-06T05:33:13;8.90;;;2.13;;
27293;SDS011;14785;52.556;13.430;2022-07-06T05:35:38;9.83;;;1.87;;
27293;SDS011;14785;52.556;13.430;2022-07-06T05:38:04;9.67;;;2.00;;
27293;SDS011;14785;52.556;13.430;2022-07-06T05:40:29;6.97;;;1.95;;
27293;SDS011;14785;52.556;13.430;2022-07-06T05:42:55;8.07;;;2.00;;
27293;SDS011;14785;52.556;13.430;2022-07-06T05:45:20;7.60;;;1.97;;
27293;SDS011;14785;52.556;13.430;2022-07-06T05:47:47;8.80;;;2.20;;
27293;SDS011;14785;52.556;13.430;2022-07-06T05:50:31;6.95;;;1.85;;
27293;SDS011;14785;52.556;13.430;2022-07-06T05:53:00;10.07;;;1.67;;
27293;SDS011;14785;52.556;13.430;2022-07-06T05:55:27;10.63;;;2.08;;
27293;SDS011;14785;52.556;13.430;2022-07-06T05:57:53;9.77;;;2.30;;
27293;SDS011;14785;52.556;13.430;2022-07-06T06:00:19;9.93;;;2.03;;
27293;SDS011;14785;52.556;13.430;2022-07-06T06:02:46;6.00;;;2.05;;
27293;SDS011;14785;52.556;13.430;2022-07-06T06:05:12;8.77;;;2.07;;
27293;SDS011;14785;52.556;13.430;2022-07-06T06:07:39;8.70;;;2.53;;
27293;SDS011;14785;52.556;13.430;2022-07-06T06:10:05;7.87;;;2.53;;
27293;SDS011;14785;52.556;13.430;2022-07-06T06:12:32;9.27;;;2.00;;
27293;SDS011;14785;52.556;13.430;2022-07-06T06:14:58;13.53;;;1.90;;
27293;SDS011;14785;52.556;13.430;2022-07-06T06:17:23;7.53;;;1.93;;
27293;SDS011;14785;52.556;13.430;2022-07-06T06:19:48;6.23;;;1.90;;
27293;SDS011;14785;52.556;13.430;2022-07-06T06:22:14;8.17;;;2.60;;
27293;SDS011;14785;52.556;13.430;2022-07-06T06:24:39;8.40;;;2.73;;
27293;SDS011;14785;52.556;13.430;2022-07-06T06:27:05;11.13;;;2.90;;
27293;SDS011;14785;52.556;13.430;2022-07-06T06:29:30;6.60;;;1.80;;
27293;SDS011;14785;52.556;13.430;2022-07-06T06:31:56;6.90;;;2.10;;
27293;SDS011;14785;52.556;13.430;2022-07-06T06:34:21;7.30;;;2.03;;
27293;SDS011;14785;52.556;13.430;2022-07-06T06:36:46;7.93;;;1.47;;
27293;SDS011;14785;52.556;13.430;2022-07-06T06:39:12;5.80;;;1.97;;
27293;SDS011;14785;52.556;13.430;2022-07-06T06:41:37;5.83;;;2.00;;
27293;SDS011;14785;52.556;13.430;2022-07-06T06:44:02;9.63;;;2.03;;
27293;SDS011;14785;52.556;13.430;2022-07-06T06:46:28;7.97;;;2.10;;
27293;SDS011;14785;52.556;13.430;2022-07-06T06:48:53;12.33;;;2.93;;
27293;SDS011;14785;52.556;13.430;2022-07-06T06:51:18;7.97;;;2.27;;
27293;SDS011;14785;52.556;13.430;2022-07-06T06:53:45;6.90;;;2.10;;
27293;SDS011;14785;52.556;13.430;2022-07-06T06:56:11;3.00;;;1.40;;
27293;SDS011;14785;52.556;13.430;2022-07-06T06:58:36;16.10;;;2.50;;
27293;SDS011;14785;52.556;13.430;2022-07-06T07:01:02;7.17;;;2.03;;
27293;SDS011;14785;52.556;13.430;2022-07-06T07:03:27;6.37;;;2.10;;
27293;SDS011;14785;52.556;13.430;2022-07-06T07:05:52;8.37;;;1.90;;
27293;SDS011;14785;52.556;13.430;2022-07-06T07:08:18;7.93;;;1.87;;
27293;SDS011;14785;52.556;13.430;2022-07-06T07:10:43;7.57;;;1.93;;
27293;SDS011;14785;52.556;13.430;2022-07-06T07:13:08;7.73;;;1.73;;
27293;SDS011;14785;52.556;13.430;2022-07-06T07:15:34;8.33;;;1.60;;
27293;SDS011;14785;52.556;13.430;2022-07-06T07:17:59;9.10;;;2.00;;
27293;SDS011;14785;52.556;13.430;2022-07-06T07:20:24;9.87;;;1.50;;
27293;SDS011;14785;52.556;13.430;2022-07-06T07:22:50;13.87;;;2.20;;
27293;SDS011;14785;52.556;13.430;2022-07-06T07:25:16;9.67;;;2.30;;
27293;SDS011;14785;52.556;13.430;2022-07-06T07:27:41;3.63;;;1.87;;
27293;SDS011;14785;52.556;13.430;2022-07-06T07:30:07;7.97;;;1.70;;
27293;SDS011;14785;52.556;13.430;2022-07-06T07:32:33;5.47;;;1.75;;
27293;SDS011;14785;52.556;13.430;2022-07-06T07:34:58;7.67;;;2.07;;
27293;SDS011;14785;52.556;13.430;2022-07-06T07:37:23;4.27;;;1.43;;
27293;SDS011;14785;52.556;13.430;2022-07-06T07:39:49;3.00;;;1.27;;
27293;SDS011;14785;52.556;13.430;2022-07-06T07:42:14;6.87;;;1.17;;
27293;SDS011;14785;52.556;13.430;2022-07-06T07:44:39;5.93;;;1.47;;
27293;SDS011;14785;52.556;13.430;2022-07-06T07:47:05;4.45;;;1.20;;
27293;SDS011;14785;52.556;13.430;2022-07-06T07:49:31;7.57;;;1.83;;
27293;SDS011;14785;52.556;13.430;2022-07-06T07:51:57;6.35;;;1.70;;
27293;SDS011;14785;52.556;13.430;2022-07-06T07:54:22;5.87;;;1.47;;
27293;SDS011;14785;52.556;13.430;2022-07-06T07:56:48;4.83;;;1.30;;
27293;SDS011;14785;52.556;13.430;2022-07-06T07:59:13;9.47;;;1.80;;
27293;SDS011;14785;52.556;13.430;2022-07-06T08:01:39;5.97;;;1.52;;
27293;SDS011;14785;52.556;13.430;2022-07-06T08:04:04;10.23;;;2.03;;
27293;SDS011;14785;52.556;13.430;2022-07-06T08:06:30;6.63;;;1.40;;
27293;SDS011;14785;52.556;13.430;2022-07-06T08:08:56;6.30;;;1.70;;
27293;SDS011;14785;52.556;13.430;2022-07-06T08:11:21;4.53;;;1.50;;
27293;SDS011;14785;52.556;13.430;2022-07-06T08:13:46;5.53;;;1.70;;
27293;SDS011;14785;52.556;13.430;2022-07-06T08:16:12;6.83;;;1.40;;
27293;SDS011;14785;52.556;13.430;2022-07-06T08:18:37;3.40;;;1.63;;
27293;SDS011;14785;52.556;13.430;2022-07-06T08:21:03;5.83;;;1.70;;
27293;SDS011;14785;52.556;13.430;2022-07-06T08:23:29;8.20;;;1.70;;
27293;SDS011;14785;52.556;13.430;2022-07-06T08:25:54;5.87;;;1.10;;
27293;SDS011;14785;52.556;13.430;2022-07-06T08:28:19;5.23;;;1.47;;
27293;SDS011;14785;52.556;13.430;2022-07-06T08:30:45;3.93;;;1.40;;
27293;SDS011;14785;52.556;13.430;2022-07-06T08:33:10;5.30;;;1.13;;
27293;SDS011;14785;52.556;13.430;2022-07-06T08:35:36;7.67;;;1.43;;
27293;SDS011;14785;52.556;13.430;2022-07-06T08:38:01;6.23;;;0.90;;
27293;SDS011;14785;52.556;13.430;2022-07-06T08:40:30;3.50;;;1.23;;
27293;SDS011;14785;52.556;13.430;2022-07-06T08:42:59;5.38;;;1.00;;
27293;SDS011;14785;52.556;13.430;2022-07-06T08:45:25;4.57;;;1.40;;
27293;SDS011;14785;52.556;13.430;2022-07-06T08:50:18;4.00;;;1.48;;
27293;SDS011;14785;52.556;13.430;2022-07-06T08:52:45;4.50;;;1.20;;
27293;SDS011;14785;52.556;13.430;2022-07-06T08:55:12;2.97;;;1.15;;
27293;SDS011;14785;52.556;13.430;2022-07-06T08:57:38;6.80;;;1.38;;
27293;SDS011;14785;52.556;13.430;2022-07-06T09:00:07;3.50;;;1.00;;
27293;SDS011;14785;52.556;13.430;2022-07-06T09:04:59;5.07;;;1.15;;
27293;SDS011;14785;52.556;13.430;2022-07-06T09:07:28;2.70;;;0.88;;
27293;SDS011;14785;52.556;13.430;2022-07-06T09:09:54;2.25;;;0.88;;
27293;SDS011;14785;52.556;13.430;2022-07-06T09:12:20;4.43;;;1.00;;
27293;SDS011;14785;52.556;13.430;2022-07-06T09:14:46;4.57;;;1.10;;
27293;SDS011;14785;52.556;13.430;2022-07-06T09:17:11;2.47;;;0.68;;
27293;SDS011;14785;52.556;13.430;2022-07-06T09:19:37;7.63;;;1.25;;
27293;SDS011;14785;52.556;13.430;2022-07-06T09:22:03;2.77;;;1.07;;
27293;SDS011;14785;52.556;13.430;2022-07-06T09:24:29;5.85;;;1.20;;
27293;SDS011;14785;52.556;13.430;2022-07-06T09:26:56;2.70;;;0.70;;
27293;SDS011;14785;52.556;13.430;2022-07-06T09:29:29;3.33;;;1.38;;
27293;SDS011;14785;52.556;13.430;2022-07-06T09:32:01;4.45;;;0.80;;
27293;SDS011;14785;52.556;13.430;2022-07-06T09:34:42;4.15;;;0.90;;
27293;SDS011;14785;52.556;13.430;2022-07-06T09:37:08;3.42;;;1.10;;
27293;SDS011;14785;52.556;13.430;2022-07-06T09:39:34;3.55;;;1.10;;
27293;SDS011;14785;52.556;13.430;2022-07-06T09:42:01;5.60;;;1.17;;
27293;SDS011;14785;52.556;13.430;2022-07-06T09:44:32;2.25;;;0.70;;
27293;SDS011;14785;52.556;13.430;2022-07-06T09:47:00;3.78;;;0.77;;
27293;SDS011;14785;52.556;13.430;2022-07-06T09:49:33;7.72;;;2.05;;
27293;SDS011;14785;52.556;13.430;2022-07-06T09:52:03;4.53;;;1.42;;
27293;SDS011;14785;52.556;13.430;2022-07-06T09:54:33;3.03;;;1.00;;
27293;SDS011;14785;52.556;13.430;2022-07-06T09:57:00;3.97;;;0.90;;
27293;SDS011;14785;52.556;13.430;2022-07-06T09:59:27;2.85;;;0.88;;
27293;SDS011;14785;52.556;13.430;2022-07-06T10:01:54;5.38;;;1.25;;
27293;SDS011;14785;52.556;13.430;2022-07-06T10:04:22;4.95;;;1.05;;
27293;SDS011;14785;52.556;13.430;2022-07-06T10:06:48;4.03;;;1.10;;
27293;SDS011;14785;52.556;13.430;2022-07-06T10:09:14;6.88;;;0.98;;
27293;SDS011;14785;52.556;13.430;2022-07-06T10:11:42;4.80;;;0.93;;
27293;SDS011;14785;52.556;13.430;2022-07-06T10:14:10;2.30;;;0.98;;
27293;SDS011;14785;52.556;13.430;2022-07-06T10:16:38;5.30;;;1.00;;
27293;SDS011;14785;52.556;13.430;2022-07-06T10:19:04;8.90;;;1.30;;
27293;SDS011;14785;52.556;13.430;2022-07-06T10:21:32;3.08;;;1.08;;
27293;SDS011;14785;52.556;13.430;2022-07-06T10:24:02;5.40;;;1.10;;
27293;SDS011;14785;52.556;13.430;2022-07-06T10:26:28;9.82;;;1.52;;
27293;SDS011;14785;52.556;13.430;2022-07-06T10:28:55;4.78;;;1.40;;
27293;SDS011;14785;52.556;13.430;2022-07-06T10:31:23;3.95;;;1.00;;
27293;SDS011;14785;52.556;13.430;2022-07-06T10:33:49;3.78;;;1.00;;
27293;SDS011;14785;52.556;13.430;2022-07-06T10:36:15;7.15;;;1.10;;
27293;SDS011;14785;52.556;13.430;2022-07-06T10:38:41;6.63;;;1.03;;
27293;SDS011;14785;52.556;13.430;2022-07-06T10:41:13;6.78;;;1.30;;
27293;SDS011;14785;52.556;13.430;2022-07-06T10:43:42;5.07;;;1.20;;
27293;SDS011;14785;52.556;13.430;2022-07-06T10:46:18;3.50;;;0.70;;
27293;SDS011;14785;52.556;13.430;2022-07-06T10:48:45;2.20;;;0.75;;
27293;SDS011;14785;52.556;13.430;2022-07-06T10:51:23;4.85;;;0.98;;
27293;SDS011;14785;52.556;13.430;2022-07-06T10:53:55;3.25;;;0.80;;
27293;SDS011;14785;52.556;13.430;2022-07-06T10:56:31;3.40;;;0.75;;
27293;SDS011;14785;52.556;13.430;2022-07-06T11:02:17;4.40;;;1.15;;
27293;SDS011;14785;52.556;13.430;2022-07-06T11:04:46;4.70;;;1.00;;
27293;SDS011;14785;52.556;13.430;2022-07-06T11:07:13;3.30;;;0.90;;
27293;SDS011;14785;52.556;13.430;2022-07-06T11:09:40;5.07;;;1.10;;
27293;SDS011;14785;52.556;13.430;2022-07-06T11:12:19;4.57;;;0.82;;
27293;SDS011;14785;52.556;13.430;2022-07-06T11:14:45;5.88;;;1.10;;
27293;SDS011;14785;52.556;13.430;2022-07-06T11:17:12;4.03;;;0.93;;
27293;SDS011;14785;52.556;13.430;2022-07-06T11:19:38;5.82;;;0.90;;
27293;SDS011;14785;52.556;13.430;2022-07-06T11:22:14;4.15;;;0.93;;
27293;SDS011;14785;52.556;13.430;2022-07-06T11:24:40;3.00;;;0.90;;
27293;SDS011;14785;52.556;13.430;2022-07-06T11:27:06;5.35;;;1.02;;
27293;SDS011;14785;52.556;13.430;2022-07-06T11:29:32;2.87;;;0.83;;
27293;SDS011;14785;52.556;13.430;2022-07-06T11:32:04;3.10;;;0.70;;
27293;SDS011;14785;52.556;13.430;2022-07-06T11:34:35;5.45;;;0.90;;
27293;SDS011;14785;52.556;13.430;2022-07-06T11:37:09;5.63;;;1.00;;
27293;SDS011;14785;52.556;13.430;2022-07-06T11:39:39;2.65;;;0.70;;
27293;SDS011;14785;52.556;13.430;2022-07-06T11:42:09;5.75;;;1.13;;
27293;SDS011;14785;52.556;13.430;2022-07-06T11:44:35;4.40;;;1.05;;
27293;SDS011;14785;52.556;13.430;2022-07-06T11:47:02;6.80;;;1.33;;
27293;SDS011;14785;52.556;13.430;2022-07-06T11:49:30;2.78;;;0.55;;
27293;SDS011;14785;52.556;13.430;2022-07-06T11:51:56;4.28;;;0.90;;
27293;SDS011;14785;52.556;13.430;2022-07-06T11:54:22;5.15;;;0.60;;
27293;SDS011;14785;52.556;13.430;2022-07-06T11:59:24;2.40;;;0.65;;
27293;SDS011;14785;52.556;13.430;2022-07-06T12:01:58;2.97;;;0.80;;
27293;SDS011;14785;52.556;13.430;2022-07-06T12:04:34;4.65;;;0.73;;
27293;SDS011;14785;52.556;13.430;2022-07-06T12:07:08;6.63;;;0.80;;
27293;SDS011;14785;52.556;13.430;2022-07-06T12:09:37;4.68;;;0.70;;
27293;SDS011;14785;52.556;13.430;2022-07-06T12:12:03;5.18;;;0.70;;
27293;SDS011;14785;52.556;13.430;2022-07-06T12:14:30;2.30;;;0.80;;
27293;SDS011;14785;52.556;13.430;2022-07-06T12:17:02;3.70;;;0.90;;
27293;SDS011;14785;52.556;13.430;2022-07-06T12:19:29;7.88;;;1.40;;
27293;SDS011;14785;52.556;13.430;2022-07-06T12:21:54;1.73;;;0.60;;
27293;SDS011;14785;52.556;13.430;2022-07-06T12:24:20;4.97;;;0.87;;
27293;SDS011;14785;52.556;13.430;2022-07-06T12:26:47;8.05;;;1.08;;
27293;SDS011;14785;52.556;13.430;2022-07-06T12:29:13;1.55;;;0.80;;
27293;SDS011;14785;52.556;13.430;2022-07-06T12:31:40;3.63;;;0.70;;
27293;SDS011;14785;52.556;13.430;2022-07-06T12:34:11;4.50;;;0.98;;
27293;SDS011;14785;52.556;13.430;2022-07-06T12:36:42;3.05;;;0.73;;
27293;SDS011;14785;52.556;13.430;2022-07-06T12:39:17;8.27;;;0.70;;
27293;SDS011;14785;52.556;13.430;2022-07-06T12:42:02;2.22;;;0.80;;
27293;SDS011;14785;52.556;13.430;2022-07-06T12:44:29;2.35;;;0.80;;
27293;SDS011;14785;52.556;13.430;2022-07-06T12:47:03;2.35;;;0.70;;
27293;SDS011;14785;52.556;13.430;2022-07-06T12:49:32;6.07;;;1.07;;
27293;SDS011;14785;52.556;13.430;2022-07-06T12:52:01;3.88;;;0.70;;
27293;SDS011;14785;52.556;13.430;2022-07-06T12:57:20;2.78;;;0.50;;
27293;SDS011;14785;52.556;13.430;2022-07-06T13:02:26;3.83;;;0.63;;
27293;SDS011;14785;52.556;13.430;2022-07-06T13:07:20;4.73;;;0.90;;
27293;SDS011;14785;52.556;13.430;2022-07-06T13:09:45;5.53;;;0.97;;
27293;SDS011;14785;52.556;13.430;2022-07-06T13:12:11;6.47;;;0.90;;
27293;SDS011;14785;52.556;13.430;2022-07-06T13:14:36;5.87;;;0.90;;
27293;SDS011;14785;52.556;13.430;2022-07-06T13:17:02;5.60;;;0.97;;
27293;SDS011;14785;52.556;13.430;2022-07-06T13:19:27;2.65;;;0.90;;
27293;SDS011;14785;52.556;13.430;2022-07-06T13:21:53;4.90;;;0.97;;
27293;SDS011;14785;52.556;13.430;2022-07-06T13:24:18;7.50;;;1.10;;
27293;SDS011;14785;52.556;13.430;2022-07-06T13:26:43;7.37;;;1.50;;
27293;SDS011;14785;52.556;13.430;2022-07-06T13:29:09;3.17;;;0.80;;
27293;SDS011;14785;52.556;13.430;2022-07-06T13:31:36;3.90;;;0.98;;
27293;SDS011;14785;52.556;13.430;2022-07-06T13:34:01;1.67;;;0.70;;
27293;SDS011;14785;52.556;13.430;2022-07-06T13:36:27;3.40;;;1.03;;
27293;SDS011;14785;52.556;13.430;2022-07-06T13:38:52;5.47;;;1.00;;
27293;SDS011;14785;52.556;13.430;2022-07-06T13:41:18;2.23;;;0.70;;
27293;SDS011;14785;52.556;13.430;2022-07-06T13:43:43;3.07;;;0.77;;
27293;SDS011;14785;52.556;13.430;2022-07-06T13:46:09;3.60;;;0.80;;
27293;SDS011;14785;52.556;13.430;2022-07-06T13:48:36;3.10;;;0.60;;
27293;SDS011;14785;52.556;13.430;2022-07-06T13:51:01;1.27;;;0.57;;
27293;SDS011;14785;52.556;13.430;2022-07-06T13:53:26;3.70;;;0.50;;
27293;SDS011;14785;52.556;13.430;2022-07-06T13:55:52;2.77;;;0.70;;
27293;SDS011;14785;52.556;13.430;2022-07-06T13:58:19;1.08;;;0.50;;
27293;SDS011;14785;52.556;13.430;2022-07-06T14:00:45;3.20;;;0.70;;
27293;SDS011;14785;52.556;13.430;2022-07-06T14:03:10;5.13;;;0.77;;
27293;SDS011;14785;52.556;13.430;2022-07-06T14:05:36;1.90;;;0.70;;
27293;SDS011;14785;52.556;13.430;2022-07-06T14:08:01;2.77;;;0.70;;
27293;SDS011;14785;52.556;13.430;2022-07-06T14:10:27;3.30;;;0.93;;
27293;SDS011;14785;52.556;13.430;2022-07-06T14:12:53;1.45;;;0.47;;
27293;SDS011;14785;52.556;13.430;2022-07-06T14:15:19;1.08;;;0.30;;
27293;SDS011;14785;52.556;13.430;2022-07-06T14:17:44;4.63;;;0.60;;
27293;SDS011;14785;52.556;13.430;2022-07-06T14:20:10;6.67;;;0.83;;
27293;SDS011;14785;52.556;13.430;2022-07-06T14:22:36;2.63;;;0.55;;
27293;SDS011;14785;52.556;13.430;2022-07-06T14:25:02;3.97;;;0.50;;
27293;SDS011;14785;52.556;13.430;2022-07-06T14:27:27;5.50;;;0.90;;
27293;SDS011;14785;52.556;13.430;2022-07-06T14:29:53;5.47;;;0.87;;
27293;SDS011;14785;52.556;13.430;2022-07-06T14:32:18;4.50;;;0.60;;
27293;SDS011;14785;52.556;13.430;2022-07-06T14:34:43;3.33;;;1.20;;
27293;SDS011;14785;52.556;13.430;2022-07-06T14:37:09;3.43;;;0.73;;
27293;SDS011;14785;52.556;13.430;2022-07-06T14:39:34;3.07;;;0.67;;
27293;SDS011;14785;52.556;13.430;2022-07-06T14:42:00;2.27;;;0.70;;
27293;SDS011;14785;52.556;13.430;2022-07-06T14:44:25;3.03;;;0.77;;
27293;SDS011;14785;52.556;13.430;2022-07-06T14:46:51;0.90;;;0.50;;
27293;SDS011;14785;52.556;13.430;2022-07-06T14:49:17;3.30;;;0.50;;